This is the latest recevied weather packets stored in our database for station/object SP9TWP-3. If no packets are shown the sender has not sent any weather packets the latest 10 day(s).
| Time | Temp. | Humidity | Pressure | Rain* | Wind** | Luminosity | Snow |
|---|---|---|---|---|---|---|---|
| 1777396510 | 10.56° C | 25% | 1021.2 hPa | - | - | - | - |
| 1777395610 | 11.11° C | 25% | 1021.1 hPa | - | - | - | - |
| 1777394710 | 11.11° C | 25% | 1021.1 hPa | - | - | - | - |
| 1777393810 | 11.11° C | 23% | 1021 hPa | - | - | - | - |
| 1777392909 | 11.11° C | 22% | 1021.1 hPa | - | - | - | - |
| 1777392009 | 11.67° C | 22% | 1021 hPa | - | - | - | - |
| 1777391185 | 11.67° C | 21% | 1021 hPa | - | - | - | - |
| 1777391109 | 11.67° C | 21% | 1021 hPa | - | - | - | - |
| 1777390209 | 11.67° C | 21% | 1021.1 hPa | - | - | - | - |
| 1777389309 | 11.67° C | 21% | 1021.2 hPa | - | - | - | - |
| 1777388409 | 12.22° C | 22% | 1021.2 hPa | - | - | - | - |
| 1777387508 | 12.22° C | 22% | 1021.2 hPa | - | - | - | - |
| 1777386608 | 12.78° C | 21% | 1021.2 hPa | - | - | - | - |
| 1777385708 | 16.11° C | 17% | 1021.4 hPa | - | - | - | - |
| 1777384808 | 15° C | 19% | 1021.4 hPa | - | - | - | - |
| 1777383908 | 18.89° C | 15% | 1021.6 hPa | - | - | - | - |
| 1777383008 | 17.22° C | 17% | 1021.5 hPa | - | - | - | - |
| 1777382108 | 16.67° C | 18% | 1021.5 hPa | - | - | - | - |
| 1777381207 | 16.11° C | 19% | 1021.6 hPa | - | - | - | - |
| 1777381092 | 15.56° C | 19% | 1021.8 hPa | - | - | - | - |
| 1777380307 | 15.56° C | 20% | 1021.7 hPa | - | - | - | - |
| 1777379407 | 15.56° C | 19% | 1021.8 hPa | - | - | - | - |
| 1777378507 | 15° C | 20% | 1021.8 hPa | - | - | - | - |
| 1777377607 | 14.44° C | 20% | 1021.8 hPa | - | - | - | - |
| 1777376706 | 14.44° C | 20% | 1021.9 hPa | - | - | - | - |
* Rain since midnight (hover to see other rain measurements)
** Current wind speed in m/s (hover to see current wind gust speed)